Time;durP1;ratioP1;P1;durP2;ratioP2;P2;SDS_P1;SDS_P2;PMS_P1;PMS_P2;Temp;Humidity;BMP_temperature;BMP_pressure;BME280_temperature;BME280_humidity;BME280_pressure;Samples;Min_cycle;Max_cycle;Signal;HPM_P1;HPM_P2
2023/06/03 00:00:28;;;;;;;8.20;6.13;;;20.40;50.50;;;;;;5015940;28;20191;-65
2023/06/03 00:02:54;;;;;;;10.90;5.43;;;20.40;50.60;;;;;;5014315;28;20200;-65
2023/06/03 00:05:21;;;;;;;9.00;5.63;;;20.40;50.70;;;;;;5015391;28;20425;-65
2023/06/03 00:07:46;;;;;;;9.23;6.00;;;20.30;50.70;;;;;;5005587;28;20268;-64
2023/06/03 00:10:13;;;;;;;8.40;5.20;;;20.20;50.80;;;;;;5011992;28;20690;-64
2023/06/03 00:12:39;;;;;;;9.33;6.00;;;20.30;51.00;;;;;;5007914;28;20820;-65
2023/06/03 00:15:05;;;;;;;7.30;5.20;;;20.20;51.00;;;;;;5014422;28;20438;-64
2023/06/03 00:17:31;;;;;;;8.87;5.30;;;20.20;51.10;;;;;;5014359;28;21256;-64
2023/06/03 00:19:57;;;;;;;7.23;5.80;;;20.20;51.20;;;;;;5017556;28;21004;-65
2023/06/03 00:22:23;;;;;;;7.10;5.20;;;20.10;51.20;;;;;;5009728;28;20475;-65
2023/06/03 00:24:49;;;;;;;7.50;5.27;;;20.10;51.40;;;;;;5041095;28;20265;-65
2023/06/03 00:27:15;;;;;;;12.00;5.47;;;20.10;51.50;;;;;;5012283;28;20440;-65
2023/06/03 00:29:40;;;;;;;7.67;5.40;;;20.00;51.50;;;;;;5014701;28;20219;-65
2023/06/03 00:32:06;;;;;;;9.60;5.97;;;19.90;51.60;;;;;;5009690;28;20797;-64
2023/06/03 00:34:32;;;;;;;11.57;5.30;;;19.80;51.70;;;;;;5005956;28;20267;-65
2023/06/03 00:36:57;;;;;;;6.20;5.30;;;19.80;51.80;;;;;;5012706;28;20192;-65
2023/06/03 00:39:23;;;;;;;5.30;4.80;;;19.70;52.00;;;;;;5005765;28;20213;-65
2023/06/03 00:41:48;;;;;;;9.80;5.67;;;19.70;52.10;;;;;;5009836;28;20208;-66
2023/06/03 00:44:14;;;;;;;11.50;6.07;;;19.70;52.00;;;;;;5004486;28;20251;-66
2023/06/03 00:46:41;;;;;;;10.60;5.90;;;19.80;52.00;;;;;;5009822;28;20616;-65
2023/06/03 00:49:07;;;;;;;7.10;5.10;;;19.80;52.10;;;;;;5011614;28;20747;-65
2023/06/03 00:51:35;;;;;;;8.50;5.63;;;19.80;52.20;;;;;;5008885;28;20428;-65
2023/06/03 00:54:01;;;;;;;6.63;5.40;;;19.80;52.20;;;;;;5010331;28;20431;-65
2023/06/03 00:56:29;;;;;;;8.53;5.33;;;19.70;52.20;;;;;;5011498;28;20791;-65
2023/06/03 00:58:55;;;;;;;9.87;5.37;;;19.50;52.50;;;;;;5009874;28;21179;-65
2023/06/03 01:01:21;;;;;;;10.00;5.40;;;19.40;52.70;;;;;;5011696;28;20903;-65
2023/06/03 01:03:47;;;;;;;6.67;5.30;;;19.40;53.50;;;;;;5010651;28;20181;-65
2023/06/03 01:06:45;;;;;;;6.70;4.90;;;19.40;53.00;;;;;;5011596;28;20424;-65
2023/06/03 01:09:32;;;;;;;7.20;5.13;;;19.40;53.00;;;;;;5005369;28;20200;-65
2023/06/03 01:12:09;;;;;;;9.20;5.10;;;19.40;52.90;;;;;;5017272;28;20485;-65
2023/06/03 01:14:44;;;;;;;9.43;5.20;;;19.40;52.90;;;;;;5011663;28;20521;-65
2023/06/03 01:17:14;;;;;;;10.33;5.30;;;19.40;53.60;;;;;;5005844;28;20431;-65
2023/06/03 01:19:48;;;;;;;7.20;5.07;;;19.30;53.00;;;;;;5010619;28;20629;-65
2023/06/03 01:22:28;;;;;;;8.23;5.20;;;19.30;53.20;;;;;;5004131;28;22209;-65
2023/06/03 01:25:11;;;;;;;9.07;5.47;;;19.40;53.20;;;;;;5012903;28;20431;-65
2023/06/03 01:27:38;;;;;;;7.23;4.77;;;19.30;53.30;;;;;;5011850;28;20474;-65
2023/06/03 01:30:07;;;;;;;7.13;5.63;;;19.30;53.30;;;;;;5008825;28;20450;-65
2023/06/03 01:32:34;;;;;;;6.47;4.63;;;19.20;53.40;;;;;;5007334;28;20558;-65
2023/06/03 01:35:00;;;;;;;12.50;6.20;;;19.10;53.60;;;;;;5008431;28;20515;-65
2023/06/03 01:37:27;;;;;;;10.20;6.20;;;19.10;53.80;;;;;;5012653;28;20925;-65
2023/06/03 01:39:54;;;;;;;7.00;4.77;;;19.10;53.80;;;;;;5007525;28;20466;-65
2023/06/03 01:42:20;;;;;;;9.57;5.73;;;19.10;53.80;;;;;;5009598;28;20984;-66
2023/06/03 01:44:45;;;;;;;9.07;5.40;;;19.00;53.80;;;;;;5007119;28;20462;-66
2023/06/03 01:47:11;;;;;;;7.40;5.13;;;19.00;54.00;;;;;;5008755;28;20463;-66
2023/06/03 01:49:37;;;;;;;9.97;5.90;;;19.00;54.30;;;;;;5007305;28;20205;-66
2023/06/03 01:52:03;;;;;;;6.70;5.47;;;19.00;54.30;;;;;;5013569;28;20272;-66
2023/06/03 01:54:29;;;;;;;6.90;5.80;;;19.00;54.20;;;;;;5004410;28;20525;-66
2023/06/03 01:56:56;;;;;;;8.10;5.27;;;18.90;54.30;;;;;;5007226;28;20172;-66
2023/06/03 01:59:23;;;;;;;7.67;5.43;;;18.80;54.50;;;;;;5005836;28;21884;-66
2023/06/03 02:01:56;;;;;;;11.50;5.63;;;18.80;54.50;;;;;;5011460;28;20876;-66
2023/06/03 02:04:22;;;;;;;8.93;5.40;;;18.70;54.70;;;;;;5005568;28;20919;-66
2023/06/03 02:06:55;;;;;;;13.43;5.47;;;18.70;54.80;;;;;;5008175;28;20854;-66
2023/06/03 02:09:22;;;;;;;9.73;6.10;;;18.70;54.90;;;;;;5006617;28;20967;-66
2023/06/03 02:11:48;;;;;;;7.17;4.80;;;18.70;55.00;;;;;;5016060;28;20443;-66
2023/06/03 02:14:14;;;;;;;9.30;5.20;;;18.70;55.10;;;;;;5008805;28;20436;-66
2023/06/03 02:16:40;;;;;;;8.93;5.33;;;18.80;55.10;;;;;;5017076;28;20973;-66
2023/06/03 02:19:20;;;;;;;10.40;5.50;;;18.70;55.10;;;;;;5012171;28;20588;-66
2023/06/03 02:21:47;;;;;;;10.07;5.40;;;18.70;55.20;;;;;;5009175;28;20561;-66
2023/06/03 02:24:16;;;;;;;10.10;5.17;;;18.60;55.20;;;;;;5009741;28;20487;-66
2023/06/03 02:26:49;;;;;;;9.20;5.13;;;18.60;55.60;;;;;;5007081;28;20995;-66
2023/06/03 02:29:16;;;;;;;13.47;8.37;;;18.60;55.50;;;;;;5004823;28;20934;-66
2023/06/03 02:31:42;;;;;;;8.50;5.43;;;18.50;55.60;;;;;;5013616;28;20439;-66
2023/06/03 02:34:08;;;;;;;8.30;5.90;;;18.50;55.60;;;;;;5013969;28;20526;-66
2023/06/03 02:36:33;;;;;;;6.83;4.93;;;18.50;55.80;;;;;;5007805;28;20637;-66
2023/06/03 02:38:59;;;;;;;11.07;5.40;;;18.40;55.80;;;;;;5009778;28;20212;-66
2023/06/03 02:41:25;;;;;;;5.73;5.13;;;18.40;55.90;;;;;;5009847;28;21024;-66
2023/06/03 02:43:50;;;;;;;9.87;5.20;;;18.30;56.30;;;;;;5007975;28;20541;-66
2023/06/03 02:46:16;;;;;;;8.43;5.57;;;18.20;56.50;;;;;;5007225;28;20465;-66
2023/06/03 02:48:41;;;;;;;6.80;4.60;;;18.20;56.40;;;;;;5010180;28;20234;-66
2023/06/03 02:51:07;;;;;;;6.60;5.30;;;18.10;56.60;;;;;;5008570;28;20184;-66
2023/06/03 02:53:33;;;;;;;9.87;5.30;;;18.00;56.80;;;;;;5013372;28;20185;-66
2023/06/03 02:55:59;;;;;;;7.03;5.60;;;18.10;56.90;;;;;;5006906;28;20596;-66
2023/06/03 02:58:24;;;;;;;9.50;4.73;;;18.10;56.90;;;;;;5010002;28;20451;-66
2023/06/03 03:00:50;;;;;;;13.50;5.00;;;18.00;57.10;;;;;;5008521;28;20189;-66
2023/06/03 03:03:16;;;;;;;8.60;5.47;;;18.00;57.10;;;;;;5011008;28;20197;-66
2023/06/03 03:05:42;;;;;;;9.67;5.37;;;17.90;57.30;;;;;;5005217;28;20711;-66
2023/06/03 03:08:08;;;;;;;7.43;5.83;;;17.90;57.60;;;;;;5004166;28;20428;-66
2023/06/03 03:10:34;;;;;;;9.00;6.00;;;17.80;57.50;;;;;;5008399;28;20877;-66
2023/06/03 03:12:59;;;;;;;6.03;5.13;;;17.70;57.80;;;;;;5002873;28;20185;-66
2023/06/03 03:15:25;;;;;;;7.10;5.57;;;17.70;57.90;;;;;;5004073;28;20287;-66
2023/06/03 03:17:51;;;;;;;9.50;5.93;;;17.80;57.90;;;;;;5003125;28;20536;-66
2023/06/03 03:20:16;;;;;;;16.93;5.80;;;17.80;57.90;;;;;;5007705;28;20189;-66
2023/06/03 03:22:46;;;;;;;8.90;5.10;;;17.80;57.90;;;;;;5035297;28;20213;-66
2023/06/03 03:25:11;;;;;;;8.77;6.00;;;17.60;58.30;;;;;;5009146;28;20435;-66
2023/06/03 03:27:37;;;;;;;9.00;5.67;;;17.60;58.40;;;;;;5005537;28;20448;-66
2023/06/03 03:30:04;;;;;;;9.20;5.37;;;17.60;58.20;;;;;;5013073;28;20197;-66
2023/06/03 03:32:31;;;;;;;16.13;5.50;;;17.60;58.20;;;;;;5012983;28;20259;-66
2023/06/03 03:35:16;;;;;;;9.47;5.70;;;17.70;58.40;;;;;;5014994;28;20447;-66
2023/06/03 03:37:42;;;;;;;8.13;5.10;;;17.70;58.30;;;;;;5012025;28;20443;-66
2023/06/03 03:40:18;;;;;;;13.57;5.60;;;17.60;58.40;;;;;;5011382;28;20447;-66
2023/06/03 03:42:51;;;;;;;9.80;6.17;;;17.50;58.70;;;;;;5012117;28;20547;-66
2023/06/03 03:45:22;;;;;;;6.97;5.03;;;17.60;58.60;;;;;;5014860;28;20442;-66
2023/06/03 03:47:52;;;;;;;8.53;5.37;;;17.60;58.80;;;;;;5011304;28;20552;-66
2023/06/03 03:50:50;;;;;;;7.90;4.90;;;17.60;58.90;;;;;;5009483;28;21210;-66
2023/06/03 03:53:18;;;;;;;7.30;5.53;;;17.50;58.90;;;;;;5013911;28;20481;-66
2023/06/03 03:55:52;;;;;;;11.87;5.40;;;17.50;59.00;;;;;;5009543;28;20439;-66
2023/06/03 03:58:40;;;;;;;11.70;5.27;;;17.50;59.30;;;;;;5015650;28;20455;-66
2023/06/03 04:01:13;;;;;;;6.93;4.80;;;17.40;59.40;;;;;;5008466;28;20436;-66
2023/06/03 04:03:40;;;;;;;9.00;5.63;;;17.50;59.40;;;;;;5018345;28;20439;-65
2023/06/03 04:06:11;;;;;;;7.10;5.67;;;17.50;59.30;;;;;;5008746;28;20442;-65
2023/06/03 04:08:47;;;;;;;6.80;5.30;;;17.50;59.50;;;;;;5005297;28;20456;-66
2023/06/03 04:11:20;;;;;;;10.30;5.40;;;17.40;59.80;;;;;;5007061;28;20439;-66
2023/06/03 04:13:46;;;;;;;8.33;5.50;;;17.40;59.80;;;;;;5009540;28;20486;-66
2023/06/03 04:16:27;;;;;;;8.27;5.07;;;17.30;59.80;;;;;;5012199;28;20470;-65
2023/06/03 04:18:52;;;;;;;6.70;5.10;;;17.40;60.00;;;;;;5012116;28;20218;-65
2023/06/03 04:21:19;;;;;;;11.00;5.30;;;17.30;60.20;;;;;;5007612;28;21474;-65
2023/06/03 04:23:46;;;;;;;7.30;4.50;;;17.40;60.30;;;;;;5009452;28;20578;-65
2023/06/03 04:26:15;;;;;;;14.00;4.97;;;17.30;60.40;;;;;;5015728;28;20459;-65
2023/06/03 04:28:40;;;;;;;9.30;5.40;;;17.30;60.60;;;;;;5017562;28;20493;-65
2023/06/03 04:31:06;;;;;;;11.43;5.60;;;17.20;60.70;;;;;;5015333;28;20433;-65
2023/06/03 04:33:32;;;;;;;10.77;6.10;;;17.20;60.90;;;;;;5012481;28;20189;-65
2023/06/03 04:35:58;;;;;;;7.60;5.53;;;17.20;61.40;;;;;;5006607;28;20193;-65
2023/06/03 04:38:24;;;;;;;11.03;5.80;;;17.20;61.60;;;;;;5015954;28;20463;-65
2023/06/03 04:40:49;;;;;;;8.60;5.37;;;17.20;61.80;;;;;;5012720;28;20673;-65
2023/06/03 04:43:18;;;;;;;10.50;5.70;;;17.10;61.80;;;;;;5017634;28;20283;-65
2023/06/03 04:45:45;;;;;;;7.30;4.73;;;17.20;62.10;;;;;;5012600;28;20442;-65
2023/06/03 04:48:15;;;;;;;12.90;6.97;;;17.30;61.90;;;;;;5014628;28;20932;-65
2023/06/03 04:50:44;;;;;;;8.40;5.90;;;17.30;62.10;;;;;;5012315;28;20489;-65
2023/06/03 04:53:10;;;;;;;6.53;5.17;;;17.20;62.20;;;;;;5009773;28;20455;-65
2023/06/03 04:55:36;;;;;;;10.53;5.30;;;17.10;62.30;;;;;;5013323;28;20511;-65
2023/06/03 04:58:02;;;;;;;6.40;4.80;;;17.10;62.60;;;;;;5011279;28;20588;-65
2023/06/03 05:00:28;;;;;;;11.63;5.37;;;17.10;63.00;;;;;;5008724;28;20197;-65
2023/06/03 05:02:56;;;;;;;9.77;5.90;;;17.10;63.30;;;;;;5011402;28;20521;-65
2023/06/03 05:05:25;;;;;;;8.23;5.20;;;17.10;63.50;;;;;;5012877;28;20555;-65
2023/06/03 05:07:51;;;;;;;9.33;6.03;;;17.10;63.50;;;;;;5004486;28;20699;-65
2023/06/03 05:10:20;;;;;;;8.13;5.80;;;17.20;63.40;;;;;;5011206;28;20434;-66
2023/06/03 05:12:46;;;;;;;14.03;5.70;;;17.10;63.60;;;;;;5007837;28;20547;-65
2023/06/03 05:15:13;;;;;;;7.00;5.40;;;17.10;64.00;;;;;;5012324;28;20523;-65
2023/06/03 05:17:38;;;;;;;13.73;7.20;;;17.00;64.40;;;;;;5011675;28;20435;-65
2023/06/03 05:20:06;;;;;;;13.60;5.90;;;17.00;64.70;;;;;;5010629;28;20859;-65
2023/06/03 05:22:32;;;;;;;7.80;5.30;;;17.10;64.40;;;;;;5006711;28;20212;-65
2023/06/03 05:24:57;;;;;;;9.10;5.57;;;17.20;64.40;;;;;;5013815;28;20439;-65
2023/06/03 05:27:23;;;;;;;8.40;5.73;;;17.30;63.70;;;;;;5012346;28;20827;-65
2023/06/03 05:29:48;;;;;;;9.60;5.60;;;17.20;63.80;;;;;;5010339;28;20735;-65
2023/06/03 05:32:14;;;;;;;10.10;6.37;;;17.20;64.30;;;;;;5011142;28;20833;-65
2023/06/03 05:34:40;;;;;;;7.63;5.60;;;17.20;64.40;;;;;;5012287;28;20276;-65
2023/06/03 05:37:05;;;;;;;9.33;5.43;;;17.30;64.10;;;;;;5013216;28;20578;-65
2023/06/03 05:39:31;;;;;;;10.63;6.07;;;17.30;65.00;;;;;;5013630;28;20200;-65
2023/06/03 05:41:57;;;;;;;6.53;5.40;;;17.40;64.10;;;;;;5007670;28;20658;-65
2023/06/03 05:44:22;;;;;;;10.93;6.30;;;17.40;63.90;;;;;;5008313;28;20335;-65
2023/06/03 05:46:48;;;;;;;8.77;5.40;;;17.40;64.10;;;;;;5013182;28;20197;-65
2023/06/03 05:49:13;;;;;;;9.53;6.40;;;17.40;64.10;;;;;;5015966;28;20211;-65
2023/06/03 05:51:39;;;;;;;8.57;5.97;;;17.40;64.50;;;;;;5011196;28;20503;-65
2023/06/03 05:54:04;;;;;;;8.70;4.80;;;17.30;64.00;;;;;;5005160;28;20184;-65
2023/06/03 05:56:30;;;;;;;9.60;5.33;;;17.40;64.30;;;;;;5011615;28;20189;-65
2023/06/03 05:58:58;;;;;;;7.87;5.23;;;17.40;64.30;;;;;;5009427;28;20872;-65
2023/06/03 06:01:23;;;;;;;11.60;5.33;;;17.40;64.50;;;;;;5014972;28;20192;-65
2023/06/03 06:03:49;;;;;;;8.90;5.17;;;17.50;64.40;;;;;;5006852;28;20449;-65
2023/06/03 06:06:15;;;;;;;8.80;5.47;;;17.50;64.40;;;;;;5011754;28;20310;-65
2023/06/03 06:08:42;;;;;;;6.73;5.80;;;17.50;64.20;;;;;;5012226;28;20209;-65
2023/06/03 06:11:10;;;;;;;7.80;5.83;;;17.40;64.50;;;;;;5010115;28;20367;-65
2023/06/03 06:13:36;;;;;;;12.93;6.03;;;17.40;64.70;;;;;;5012916;28;20447;-65
2023/06/03 06:16:04;;;;;;;8.90;5.73;;;17.50;65.00;;;;;;5011604;28;20442;-65
2023/06/03 06:18:30;;;;;;;8.43;5.77;;;17.60;64.50;;;;;;5008613;28;20255;-66
2023/06/03 06:20:56;;;;;;;8.57;6.13;;;17.70;63.80;;;;;;5012344;28;20435;-65
2023/06/03 06:23:23;;;;;;;12.73;5.77;;;17.70;64.10;;;;;;5009132;28;20239;-64
2023/06/03 06:25:50;;;;;;;7.77;5.47;;;17.70;64.00;;;;;;5012830;28;20534;-64
2023/06/03 06:28:20;;;;;;;7.50;4.93;;;17.80;64.30;;;;;;5005436;28;20208;-66
2023/06/03 06:30:46;;;;;;;9.40;5.80;;;17.80;64.10;;;;;;5008124;28;20534;-66
2023/06/03 06:33:16;;;;;;;14.63;10.63;;;17.90;64.20;;;;;;5011763;28;20435;-66
2023/06/03 06:35:42;;;;;;;17.87;7.07;;;17.90;64.20;;;;;;5014713;28;20430;-64
2023/06/03 06:38:08;;;;;;;12.70;6.60;;;17.90;64.30;;;;;;5008938;28;20438;-65
2023/06/03 06:40:35;;;;;;;11.73;7.37;;;17.90;64.40;;;;;;5007783;28;20485;-66
2023/06/03 06:43:01;;;;;;;15.00;7.27;;;18.00;64.40;;;;;;5008778;28;20474;-66
2023/06/03 06:45:30;;;;;;;10.63;7.33;;;18.10;63.90;;;;;;5037606;28;20983;-66
2023/06/03 06:48:08;;;;;;;11.50;8.77;;;18.00;63.70;;;;;;5011123;28;20435;-66
2023/06/03 06:50:50;;;;;;;10.37;6.37;;;18.10;64.20;;;;;;5007869;28;20937;-66
2023/06/03 06:53:18;;;;;;;11.37;8.40;;;17.90;64.60;;;;;;5004149;28;20823;-64
2023/06/03 06:55:56;;;;;;;8.93;5.60;;;18.10;64.50;;;;;;5006257;28;20450;-66
2023/06/03 06:58:24;;;;;;;9.23;7.53;;;18.20;64.40;;;;;;5009377;28;20463;-66
2023/06/03 07:00:50;;;;;;;8.47;7.57;;;18.30;64.10;;;;;;5004123;28;20503;-66
2023/06/03 07:03:17;;;;;;;10.93;7.20;;;18.40;63.70;;;;;;5012735;28;20459;-66
2023/06/03 07:05:45;;;;;;;8.50;7.40;;;18.50;63.10;;;;;;5012435;28;20183;-67
2023/06/03 07:08:10;;;;;;;8.40;5.87;;;18.50;62.40;;;;;;5016686;28;20444;-65
2023/06/03 07:10:36;;;;;;;8.93;6.00;;;18.60;62.60;;;;;;5015547;28;20924;-66
2023/06/03 07:13:03;;;;;;;15.13;8.87;;;18.60;62.30;;;;;;5015219;28;20224;-66
2023/06/03 07:15:29;;;;;;;9.20;7.10;;;18.70;62.00;;;;;;5020948;28;20415;-66
2023/06/03 07:17:56;;;;;;;7.27;5.33;;;18.60;62.70;;;;;;5014619;28;20521;-66
2023/06/03 07:20:34;;;;;;;9.73;6.07;;;18.60;62.60;;;;;;5018832;28;20454;-66
2023/06/03 07:23:01;;;;;;;8.53;5.53;;;18.60;62.60;;;;;;5008536;28;20478;-66
2023/06/03 07:25:33;;;;;;;10.30;6.20;;;18.80;62.40;;;;;;5041848;28;20459;-65
2023/06/03 07:27:59;;;;;;;7.57;5.80;;;18.90;61.80;;;;;;5012856;28;20813;-65
2023/06/03 07:30:25;;;;;;;11.87;5.80;;;18.90;61.80;;;;;;5016890;28;20416;-65
2023/06/03 07:32:58;;;;;;;11.10;6.70;;;18.90;62.60;;;;;;5011502;28;20189;-65
2023/06/03 07:35:24;;;;;;;7.93;5.90;;;19.00;61.90;;;;;;5013304;28;20439;-66
2023/06/03 07:37:49;;;;;;;7.10;6.10;;;19.10;61.70;;;;;;5019093;28;20420;-66
2023/06/03 07:40:15;;;;;;;8.40;5.70;;;19.10;61.70;;;;;;5020045;28;20196;-66
2023/06/03 07:42:45;;;;;;;7.17;6.30;;;19.20;61.60;;;;;;5014846;28;20208;-66
2023/06/03 07:45:14;;;;;;;11.80;8.70;;;19.20;61.50;;;;;;5014665;28;20435;-65
2023/06/03 07:47:43;;;;;;;12.77;8.30;;;19.30;61.70;;;;;;5012995;28;20954;-66
2023/06/03 07:50:23;;;;;;;9.33;6.80;;;19.30;61.50;;;;;;5011370;28;20534;-65
2023/06/03 07:53:00;;;;;;;8.60;7.57;;;19.40;61.50;;;;;;5013022;28;21921;-65
2023/06/03 07:55:36;;;;;;;10.87;6.63;;;19.40;61.30;;;;;;5016349;28;20470;-66
2023/06/03 07:58:02;;;;;;;8.07;6.10;;;19.40;61.00;;;;;;5018770;28;20432;-65
2023/06/03 08:00:27;;;;;;;8.90;6.40;;;19.50;61.00;;;;;;5017054;28;22105;-66
2023/06/03 08:02:53;;;;;;;7.87;6.63;;;19.50;60.90;;;;;;5016762;28;20203;-66
2023/06/03 08:05:36;;;;;;;13.13;11.70;;;19.60;61.90;;;;;;5013426;28;20680;-66
2023/06/03 08:08:09;;;;;;;12.60;6.47;;;19.60;60.90;;;;;;5019472;28;20267;-66
2023/06/03 08:10:35;;;;;;;15.93;7.00;;;19.70;60.50;;;;;;5012772;28;20442;-67
2023/06/03 08:13:02;;;;;;;10.27;6.33;;;19.70;61.20;;;;;;5021063;28;20443;-67
2023/06/03 08:15:32;;;;;;;8.50;6.57;;;19.90;60.60;;;;;;5018032;28;20204;-66
2023/06/03 08:17:59;;;;;;;11.90;7.33;;;19.90;60.40;;;;;;5022716;28;21043;-66
2023/06/03 08:20:28;;;;;;;8.10;6.50;;;20.00;60.00;;;;;;5017645;28;20479;-66
2023/06/03 08:22:55;;;;;;;9.13;6.80;;;20.10;59.80;;;;;;5011270;28;21037;-66
2023/06/03 08:25:21;;;;;;;12.80;7.77;;;20.00;60.00;;;;;;5016722;28;20419;-66
2023/06/03 08:27:47;;;;;;;12.60;9.33;;;20.00;60.10;;;;;;5016581;28;20411;-67
2023/06/03 08:30:13;;;;;;;9.60;8.50;;;20.20;60.10;;;;;;5014238;28;20207;-66
2023/06/03 08:32:39;;;;;;;14.80;7.70;;;20.20;60.20;;;;;;5014946;28;20432;-66
2023/06/03 08:35:09;;;;;;;13.00;6.23;;;20.30;60.00;;;;;;5018375;28;20799;-67
2023/06/03 08:37:35;;;;;;;12.73;6.50;;;20.40;59.60;;;;;;5015478;28;20180;-67
2023/06/03 08:40:01;;;;;;;13.53;10.27;;;20.30;59.70;;;;;;5013098;28;21027;-67
2023/06/03 08:42:36;;;;;;;12.70;7.80;;;20.40;59.90;;;;;;5018636;28;22140;-65
2023/06/03 08:45:06;;;;;;;6.90;6.20;;;20.50;59.80;;;;;;5016014;28;20427;-65
2023/06/03 08:47:37;;;;;;;12.00;7.30;;;20.60;59.30;;;;;;5019235;28;20423;-66
2023/06/03 08:50:08;;;;;;;10.80;8.10;;;20.70;59.50;;;;;;5015931;28;20440;-65
2023/06/03 08:52:37;;;;;;;11.13;7.10;;;20.70;59.30;;;;;;5014558;28;20446;-66
2023/06/03 08:55:05;;;;;;;10.10;7.30;;;20.70;59.50;;;;;;5015014;28;20941;-66
2023/06/03 08:57:37;;;;;;;8.10;7.27;;;20.90;59.00;;;;;;5016851;28;20564;-66
2023/06/03 09:00:05;;;;;;;9.40;6.40;;;20.80;58.90;;;;;;5018623;28;20984;-66
2023/06/03 09:02:32;;;;;;;10.27;9.20;;;20.80;59.00;;;;;;5011191;28;20477;-68
2023/06/03 09:05:01;;;;;;;8.43;7.23;;;21.00;58.80;;;;;;5017860;28;21078;-66
2023/06/03 09:07:27;;;;;;;8.93;7.00;;;21.10;59.40;;;;;;5017572;28;20474;-67
2023/06/03 09:09:55;;;;;;;8.37;7.53;;;21.10;58.50;;;;;;5013875;28;20446;-67
2023/06/03 09:12:20;;;;;;;11.40;6.97;;;21.20;58.50;;;;;;5016176;28;20423;-66
2023/06/03 09:14:47;;;;;;;7.47;6.17;;;21.20;58.50;;;;;;5012947;28;20514;-66
2023/06/03 09:17:12;;;;;;;6.23;5.63;;;21.20;58.40;;;;;;5012123;28;20180;-65
2023/06/03 09:19:39;;;;;;;8.83;8.03;;;21.30;58.50;;;;;;5015454;28;21292;-66
2023/06/03 09:22:05;;;;;;;8.07;7.37;;;21.40;58.70;;;;;;5014605;28;20201;-66
2023/06/03 09:24:31;;;;;;;9.30;6.07;;;21.50;58.20;;;;;;5014333;28;20444;-67
2023/06/03 09:26:57;;;;;;;12.03;7.77;;;21.60;57.90;;;;;;5016879;28;20474;-67
2023/06/03 09:29:23;;;;;;;11.70;6.47;;;21.60;57.70;;;;;;5010823;28;20470;-66
2023/06/03 09:31:49;;;;;;;9.20;7.10;;;21.60;58.10;;;;;;5012896;28;20452;-66
2023/06/03 09:34:15;;;;;;;7.47;6.77;;;21.60;57.80;;;;;;5014692;28;20184;-67
2023/06/03 09:36:45;;;;;;;10.80;7.40;;;21.70;58.20;;;;;;5015277;28;20255;-66
2023/06/03 09:39:16;;;;;;;7.83;6.33;;;21.80;58.10;;;;;;5027190;28;20471;-66
2023/06/03 09:41:42;;;;;;;8.20;5.70;;;21.90;57.90;;;;;;5013649;28;20476;-66
2023/06/03 09:44:10;;;;;;;6.60;5.90;;;21.90;57.90;;;;;;5017335;28;20450;-66
2023/06/03 09:46:36;;;;;;;8.53;6.37;;;21.90;58.10;;;;;;5014293;28;20429;-66
2023/06/03 09:49:08;;;;;;;7.33;6.03;;;22.00;57.90;;;;;;5010501;28;20486;-66
2023/06/03 09:51:44;;;;;;;8.70;5.70;;;22.20;57.80;;;;;;5018195;28;20275;-66
2023/06/03 09:54:17;;;;;;;6.97;5.97;;;22.30;57.50;;;;;;5013699;28;20829;-66
2023/06/03 09:56:47;;;;;;;8.20;6.90;;;22.20;57.30;;;;;;5014777;28;21182;-65
2023/06/03 09:59:21;;;;;;;9.37;6.20;;;22.20;57.40;;;;;;5012794;28;20981;-66
2023/06/03 10:01:47;;;;;;;6.27;5.67;;;22.30;57.60;;;;;;5013610;28;20451;-65
2023/06/03 10:04:44;;;;;;;6.30;5.60;;;22.40;57.60;;;;;;5019082;28;20443;-66
2023/06/03 10:07:12;;;;;;;13.00;6.60;;;22.50;57.50;;;;;;5009945;28;20471;-66
2023/06/03 10:09:38;;;;;;;8.10;6.40;;;22.60;57.20;;;;;;5011098;28;20451;-66
2023/06/03 10:12:05;;;;;;;7.00;6.30;;;22.60;57.30;;;;;;5011047;28;20442;-66
2023/06/03 10:14:30;;;;;;;9.90;6.47;;;22.60;56.80;;;;;;5010127;28;20452;-65
2023/06/03 10:17:10;;;;;;;9.20;6.17;;;22.70;56.90;;;;;;5013189;28;20515;-66
2023/06/03 10:19:39;;;;;;;6.80;6.13;;;22.70;56.90;;;;;;5011994;28;20223;-66
2023/06/03 10:22:10;;;;;;;9.23;6.33;;;22.80;56.90;;;;;;5016882;28;20463;-66
2023/06/03 10:24:42;;;;;;;8.53;5.70;;;22.90;57.40;;;;;;5012417;28;21423;-66
2023/06/03 10:27:09;;;;;;;9.30;7.87;;;22.90;57.00;;;;;;5013403;28;20478;-66
2023/06/03 10:29:35;;;;;;;11.93;6.83;;;23.00;56.90;;;;;;5016083;28;20451;-66
2023/06/03 10:32:04;;;;;;;11.63;8.00;;;23.10;56.80;;;;;;5021758;28;20438;-67
2023/06/03 10:34:31;;;;;;;8.97;7.20;;;23.20;57.00;;;;;;5013241;28;20443;-65
2023/06/03 10:36:57;;;;;;;7.93;6.50;;;23.30;56.50;;;;;;5016016;28;20462;-66
2023/06/03 10:39:27;;;;;;;11.83;6.67;;;23.30;56.30;;;;;;5015802;28;20459;-66
2023/06/03 10:41:56;;;;;;;16.83;6.83;;;23.40;55.80;;;;;;5016987;28;20462;-66
2023/06/03 10:44:22;;;;;;;8.00;6.30;;;23.50;56.20;;;;;;5015466;28;20431;-65
2023/06/03 10:47:15;;;;;;;9.20;6.63;;;23.50;56.30;;;;;;5013818;28;20430;-66
2023/06/03 10:49:50;;;;;;;9.93;7.33;;;23.50;55.70;;;;;;5025818;28;20813;-65
2023/06/03 10:52:48;;;;;;;6.83;6.23;;;23.60;55.70;;;;;;5016304;28;20553;-66
2023/06/03 10:55:40;;;;;;;10.07;6.97;;;23.80;55.70;;;;;;5025322;28;20534;-66
2023/06/03 10:58:22;;;;;;;8.60;6.67;;;23.80;56.10;;;;;;5020415;28;20407;-65
2023/06/03 11:01:02;;;;;;;9.93;6.50;;;23.90;55.90;;;;;;5014689;28;20840;-66
2023/06/03 11:03:29;;;;;;;7.90;6.37;;;24.00;56.20;;;;;;5020483;28;20478;-66
2023/06/03 11:06:21;;;;;;;7.17;6.47;;;24.10;55.50;;;;;;5018112;28;20467;-65
2023/06/03 11:08:57;;;;;;;9.93;6.70;;;24.20;55.20;;;;;;5017459;28;20770;-66
2023/06/03 11:11:41;;;;;;;8.90;6.53;;;24.30;55.70;;;;;;5018547;28;20813;-66
2023/06/03 11:14:08;;;;;;;10.70;7.07;;;24.30;55.70;;;;;;5013285;28;20477;-67
2023/06/03 11:16:55;;;;;;;9.30;6.53;;;24.30;55.00;;;;;;5017209;28;20646;-65
2023/06/03 11:19:31;;;;;;;10.13;6.90;;;24.40;55.00;;;;;;5017777;28;20459;-65
2023/06/03 11:22:01;;;;;;;8.70;7.07;;;24.60;54.80;;;;;;5014032;28;20893;-65
2023/06/03 11:24:39;;;;;;;17.50;7.87;;;24.60;54.50;;;;;;5014612;28;20431;-66
2023/06/03 11:27:13;;;;;;;7.50;6.63;;;24.60;54.90;;;;;;5012225;28;20501;-65
2023/06/03 11:29:51;;;;;;;9.13;6.20;;;24.70;54.90;;;;;;5015598;28;20442;-65
2023/06/03 11:32:30;;;;;;;7.10;5.93;;;24.90;54.60;;;;;;5016883;28;20436;-66
2023/06/03 11:35:05;;;;;;;10.53;6.27;;;25.00;54.30;;;;;;5019408;28;20416;-66
2023/06/03 11:37:45;;;;;;;9.77;6.60;;;25.10;54.10;;;;;;5017154;28;20480;-66
2023/06/03 11:40:22;;;;;;;12.60;8.17;;;25.20;54.40;;;;;;5012676;28;20454;-66
2023/06/03 11:42:50;;;;;;;7.87;7.07;;;25.30;54.20;;;;;;5013346;28;20545;-65
2023/06/03 11:45:18;;;;;;;7.20;6.50;;;25.50;53.90;;;;;;5015490;28;20431;-66
2023/06/03 11:47:48;;;;;;;7.73;6.90;;;25.60;53.60;;;;;;5010166;28;20957;-66
2023/06/03 11:50:14;;;;;;;7.83;6.77;;;25.80;53.30;;;;;;5010995;28;20436;-66
2023/06/03 11:52:40;;;;;;;8.17;6.67;;;25.90;53.20;;;;;;5011231;28;20479;-66
2023/06/03 11:55:06;;;;;;;10.90;7.17;;;26.20;53.20;;;;;;5014310;28;20458;-66
2023/06/03 11:57:33;;;;;;;7.13;6.43;;;26.30;52.40;;;;;;5019829;28;21638;-66
2023/06/03 11:59:59;;;;;;;8.67;7.10;;;26.50;52.40;;;;;;5021399;28;20602;-66
2023/06/03 12:02:25;;;;;;;12.00;6.93;;;26.90;52.30;;;;;;5017789;28;20484;-66
2023/06/03 12:05:02;;;;;;;11.20;6.60;;;27.40;51.20;;;;;;5016182;28;20428;-66
2023/06/03 12:07:29;;;;;;;7.93;6.40;;;28.20;50.40;;;;;;5018693;28;20187;-65
2023/06/03 12:09:57;;;;;;;9.03;6.60;;;29.10;49.40;;;;;;5014445;28;21403;-66
2023/06/03 12:12:23;;;;;;;8.17;7.40;;;29.70;48.30;;;;;;5015855;28;20445;-66
2023/06/03 12:14:49;;;;;;;8.80;7.90;;;29.90;47.10;;;;;;5015680;28;20941;-66
2023/06/03 12:17:16;;;;;;;10.80;9.80;;;30.00;46.90;;;;;;5021411;28;20180;-66
2023/06/03 12:19:44;;;;;;;8.80;7.90;;;30.30;46.30;;;;;;5011119;28;20299;-66
2023/06/03 12:22:10;;;;;;;8.13;7.03;;;30.50;46.10;;;;;;5009723;28;20478;-66
2023/06/03 12:24:39;;;;;;;10.03;7.47;;;30.60;45.90;;;;;;5019533;28;20432;-66
2023/06/03 12:27:11;;;;;;;7.97;6.97;;;30.80;45.10;;;;;;5015876;28;20428;-66
2023/06/03 12:29:41;;;;;;;14.30;7.23;;;30.70;44.90;;;;;;5014316;28;20471;-66
2023/06/03 12:32:07;;;;;;;13.03;6.20;;;30.50;44.70;;;;;;5014394;28;20439;-66
2023/06/03 12:34:34;;;;;;;8.10;6.90;;;30.80;44.30;;;;;;5023740;28;21712;-66
2023/06/03 12:37:02;;;;;;;7.43;6.70;;;30.80;44.20;;;;;;5017103;28;20183;-66
2023/06/03 12:39:43;;;;;;;12.03;8.53;;;30.70;45.00;;;;;;5015576;28;20613;-67
2023/06/03 12:42:09;;;;;;;8.43;7.20;;;30.70;44.10;;;;;;5014408;28;20463;-66
2023/06/03 12:44:48;;;;;;;8.70;6.50;;;30.80;44.40;;;;;;5015795;28;20433;-66
2023/06/03 12:47:15;;;;;;;13.10;8.70;;;30.80;44.60;;;;;;5017284;28;20267;-66
2023/06/03 12:49:43;;;;;;;10.73;7.13;;;30.80;43.80;;;;;;5013571;28;20459;-65
2023/06/03 12:52:17;;;;;;;8.30;7.33;;;30.70;43.80;;;;;;5011480;28;20558;-66